MPMG

Marcos A. Gelabert International Airport

Albrook, Panama
METAR MPMG 231200Z 00000KT 9000 FEW018 23/21 Q1014 NOSIG
Observed Flight Rules
Feb-23 @ 12:00 UTC (12 minutes ago) Visual Flight Rules
Wind Visibility Clouds
Calm 8,996 meters
  • Few at 1,800' AGL
Temperatures Readings
Current 23°C / 73°F
Dewpoint 21°C / 70°F
Humidity 89%
Altimeter 29.94" Hg
Pressure 1014 hPa
Elevation 13
METAR MPMG 231200Z 00000KT 9000 FEW018 23/21 Q1014 NOSIG
Observed Flight Rules
Feb-23 @ 12:00 UTC
(12 minutes ago)
VFR
Wind Visibility
Calm 8,996 meters
Clouds
  • Few at 1,800' AGL
Temperature Dewpoint
23°C / 73°F 21°C / 70°F
Humidity Altimeter Pressure
89% 29.94" Hg 1014 hPa